sensor_id;sensor_type;location;lat;lon;timestamp;P1;durP1;ratioP1;P2;durP2;ratioP2
20810;SDS011;10566;52.928;10.522;2022-11-11T00:02:12;11.80;;;3.40;;
20810;SDS011;10566;52.928;10.522;2022-11-11T00:04:38;10.97;;;3.00;;
20810;SDS011;10566;52.928;10.522;2022-11-11T00:07:04;13.50;;;2.90;;
20810;SDS011;10566;52.928;10.522;2022-11-11T00:09:30;10.47;;;2.77;;
20810;SDS011;10566;52.928;10.522;2022-11-11T00:11:57;12.33;;;2.90;;
20810;SDS011;10566;52.928;10.522;2022-11-11T00:14:23;12.37;;;2.77;;
20810;SDS011;10566;52.928;10.522;2022-11-11T00:16:49;11.30;;;3.03;;
20810;SDS011;10566;52.928;10.522;2022-11-11T00:19:33;11.37;;;2.87;;
20810;SDS011;10566;52.928;10.522;2022-11-11T00:22:21;8.83;;;2.93;;
20810;SDS011;10566;52.928;10.522;2022-11-11T00:25:07;13.60;;;3.30;;
20810;SDS011;10566;52.928;10.522;2022-11-11T00:27:34;9.63;;;3.10;;
20810;SDS011;10566;52.928;10.522;2022-11-11T00:30:00;13.13;;;3.47;;
20810;SDS011;10566;52.928;10.522;2022-11-11T00:32:26;15.20;;;3.57;;
20810;SDS011;10566;52.928;10.522;2022-11-11T00:34:55;13.87;;;3.50;;
20810;SDS011;10566;52.928;10.522;2022-11-11T00:37:41;12.17;;;3.60;;
20810;SDS011;10566;52.928;10.522;2022-11-11T00:40:07;12.83;;;3.10;;
20810;SDS011;10566;52.928;10.522;2022-11-11T00:42:34;12.67;;;3.60;;
20810;SDS011;10566;52.928;10.522;2022-11-11T00:45:00;11.87;;;3.10;;
20810;SDS011;10566;52.928;10.522;2022-11-11T00:47:26;12.53;;;2.90;;
20810;SDS011;10566;52.928;10.522;2022-11-11T00:50:12;11.13;;;2.90;;
20810;SDS011;10566;52.928;10.522;2022-11-11T00:52:57;12.50;;;3.33;;
20810;SDS011;10566;52.928;10.522;2022-11-11T00:55:23;13.43;;;3.00;;
20810;SDS011;10566;52.928;10.522;2022-11-11T00:57:50;14.30;;;2.97;;
20810;SDS011;10566;52.928;10.522;2022-11-11T01:00:16;14.27;;;3.53;;
20810;SDS011;10566;52.928;10.522;2022-11-11T01:02:42;15.70;;;2.80;;
20810;SDS011;10566;52.928;10.522;2022-11-11T01:05:08;14.07;;;3.60;;
20810;SDS011;10566;52.928;10.522;2022-11-11T01:07:34;11.63;;;3.57;;
20810;SDS011;10566;52.928;10.522;2022-11-11T01:10:01;11.80;;;3.20;;
20810;SDS011;10566;52.928;10.522;2022-11-11T01:12:27;13.73;;;3.37;;
20810;SDS011;10566;52.928;10.522;2022-11-11T01:14:53;11.23;;;3.50;;
20810;SDS011;10566;52.928;10.522;2022-11-11T01:17:19;10.43;;;3.23;;
20810;SDS011;10566;52.928;10.522;2022-11-11T01:19:45;9.87;;;3.30;;
20810;SDS011;10566;52.928;10.522;2022-11-11T01:22:11;11.37;;;2.90;;
20810;SDS011;10566;52.928;10.522;2022-11-11T01:24:37;12.23;;;3.30;;
20810;SDS011;10566;52.928;10.522;2022-11-11T01:27:03;9.90;;;3.57;;
20810;SDS011;10566;52.928;10.522;2022-11-11T01:29:29;11.77;;;3.50;;
20810;SDS011;10566;52.928;10.522;2022-11-11T01:31:55;13.27;;;3.30;;
20810;SDS011;10566;52.928;10.522;2022-11-11T01:34:21;12.07;;;3.00;;
20810;SDS011;10566;52.928;10.522;2022-11-11T01:36:47;14.30;;;3.43;;
20810;SDS011;10566;52.928;10.522;2022-11-11T01:39:13;9.33;;;2.90;;
20810;SDS011;10566;52.928;10.522;2022-11-11T01:41:39;9.33;;;3.00;;
20810;SDS011;10566;52.928;10.522;2022-11-11T01:54:35;10.57;;;3.00;;
20810;SDS011;10566;52.928;10.522;2022-11-11T01:57:46;8.50;;;3.00;;
20810;SDS011;10566;52.928;10.522;2022-11-11T01:59:52;13.70;;;3.10;;
20810;SDS011;10566;52.928;10.522;2022-11-11T02:05:09;14.67;;;3.47;;
20810;SDS011;10566;52.928;10.522;2022-11-11T02:07:55;12.53;;;3.50;;
20810;SDS011;10566;52.928;10.522;2022-11-11T02:10:23;9.30;;;3.37;;
20810;SDS011;10566;52.928;10.522;2022-11-11T02:12:50;15.07;;;3.17;;
20810;SDS011;10566;52.928;10.522;2022-11-11T02:15:35;9.57;;;3.40;;
20810;SDS011;10566;52.928;10.522;2022-11-11T02:18:01;11.10;;;3.17;;
20810;SDS011;10566;52.928;10.522;2022-11-11T02:20:28;10.80;;;3.47;;
20810;SDS011;10566;52.928;10.522;2022-11-11T02:22:56;8.43;;;2.77;;
20810;SDS011;10566;52.928;10.522;2022-11-11T02:25:25;8.83;;;3.10;;
20810;SDS011;10566;52.928;10.522;2022-11-11T02:27:52;12.70;;;3.23;;
20810;SDS011;10566;52.928;10.522;2022-11-11T02:30:22;10.23;;;3.17;;
20810;SDS011;10566;52.928;10.522;2022-11-11T02:32:49;10.97;;;2.83;;
20810;SDS011;10566;52.928;10.522;2022-11-11T02:35:19;9.07;;;3.37;;
20810;SDS011;10566;52.928;10.522;2022-11-11T02:37:46;10.60;;;3.03;;
20810;SDS011;10566;52.928;10.522;2022-11-11T02:40:16;14.33;;;3.57;;
20810;SDS011;10566;52.928;10.522;2022-11-11T02:42:43;14.13;;;3.63;;
20810;SDS011;10566;52.928;10.522;2022-11-11T02:45:09;11.30;;;3.33;;
20810;SDS011;10566;52.928;10.522;2022-11-11T02:47:35;11.93;;;3.50;;
20810;SDS011;10566;52.928;10.522;2022-11-11T02:50:01;13.37;;;4.03;;
20810;SDS011;10566;52.928;10.522;2022-11-11T02:52:27;15.43;;;3.70;;
20810;SDS011;10566;52.928;10.522;2022-11-11T02:54:53;10.37;;;2.97;;
20810;SDS011;10566;52.928;10.522;2022-11-11T02:57:19;9.93;;;3.00;;
20810;SDS011;10566;52.928;10.522;2022-11-11T02:59:46;10.57;;;3.17;;
20810;SDS011;10566;52.928;10.522;2022-11-11T03:02:12;12.03;;;3.27;;
20810;SDS011;10566;52.928;10.522;2022-11-11T03:04:38;10.70;;;3.13;;
20810;SDS011;10566;52.928;10.522;2022-11-11T03:07:05;9.17;;;2.83;;
20810;SDS011;10566;52.928;10.522;2022-11-11T03:09:31;10.30;;;3.20;;
20810;SDS011;10566;52.928;10.522;2022-11-11T03:11:57;9.97;;;2.80;;
20810;SDS011;10566;52.928;10.522;2022-11-11T03:14:23;9.50;;;3.10;;
20810;SDS011;10566;52.928;10.522;2022-11-11T03:16:49;12.00;;;2.90;;
20810;SDS011;10566;52.928;10.522;2022-11-11T03:19:34;11.13;;;2.90;;
20810;SDS011;10566;52.928;10.522;2022-11-11T03:22:00;7.87;;;2.87;;
20810;SDS011;10566;52.928;10.522;2022-11-11T03:24:27;10.63;;;2.97;;
20810;SDS011;10566;52.928;10.522;2022-11-11T03:27:13;11.10;;;2.97;;
20810;SDS011;10566;52.928;10.522;2022-11-11T03:29:39;11.60;;;3.07;;
20810;SDS011;10566;52.928;10.522;2022-11-11T03:32:07;10.47;;;3.20;;
20810;SDS011;10566;52.928;10.522;2022-11-11T03:34:33;8.20;;;2.70;;
20810;SDS011;10566;52.928;10.522;2022-11-11T03:36:59;10.87;;;2.70;;
20810;SDS011;10566;52.928;10.522;2022-11-11T03:39:45;12.60;;;3.10;;
20810;SDS011;10566;52.928;10.522;2022-11-11T03:42:11;9.13;;;3.13;;
20810;SDS011;10566;52.928;10.522;2022-11-11T03:44:37;9.97;;;3.17;;
20810;SDS011;10566;52.928;10.522;2022-11-11T03:47:03;8.37;;;2.70;;
20810;SDS011;10566;52.928;10.522;2022-11-11T03:49:29;9.27;;;3.00;;
20810;SDS011;10566;52.928;10.522;2022-11-11T03:51:55;8.57;;;2.70;;
20810;SDS011;10566;52.928;10.522;2022-11-11T03:54:21;13.40;;;3.57;;
20810;SDS011;10566;52.928;10.522;2022-11-11T03:56:47;8.03;;;2.97;;
20810;SDS011;10566;52.928;10.522;2022-11-11T03:59:13;9.03;;;2.67;;
20810;SDS011;10566;52.928;10.522;2022-11-11T04:01:39;10.20;;;3.23;;
20810;SDS011;10566;52.928;10.522;2022-11-11T04:04:24;10.00;;;3.00;;
20810;SDS011;10566;52.928;10.522;2022-11-11T04:07:09;12.97;;;2.83;;
20810;SDS011;10566;52.928;10.522;2022-11-11T04:09:53;9.53;;;2.77;;
20810;SDS011;10566;52.928;10.522;2022-11-11T04:12:38;7.60;;;3.13;;
20810;SDS011;10566;52.928;10.522;2022-11-11T04:15:24;5.93;;;2.73;;
20810;SDS011;10566;52.928;10.522;2022-11-11T04:18:09;12.00;;;3.20;;
20810;SDS011;10566;52.928;10.522;2022-11-11T04:20:35;9.83;;;2.87;;
20810;SDS011;10566;52.928;10.522;2022-11-11T04:23:20;9.37;;;2.80;;
20810;SDS011;10566;52.928;10.522;2022-11-11T04:25:46;13.43;;;3.10;;
20810;SDS011;10566;52.928;10.522;2022-11-11T04:28:16;10.00;;;2.83;;
20810;SDS011;10566;52.928;10.522;2022-11-11T04:31:01;9.53;;;3.33;;
20810;SDS011;10566;52.928;10.522;2022-11-11T04:33:27;9.57;;;3.03;;
20810;SDS011;10566;52.928;10.522;2022-11-11T04:35:53;10.50;;;3.10;;
20810;SDS011;10566;52.928;10.522;2022-11-11T04:38:19;10.40;;;3.10;;
20810;SDS011;10566;52.928;10.522;2022-11-11T04:41:04;13.83;;;3.40;;
20810;SDS011;10566;52.928;10.522;2022-11-11T04:43:32;8.60;;;3.10;;
20810;SDS011;10566;52.928;10.522;2022-11-11T04:46:18;6.53;;;2.90;;
20810;SDS011;10566;52.928;10.522;2022-11-11T04:48:44;11.07;;;2.97;;
20810;SDS011;10566;52.928;10.522;2022-11-11T04:51:10;7.17;;;3.00;;
20810;SDS011;10566;52.928;10.522;2022-11-11T04:53:36;12.93;;;3.00;;
20810;SDS011;10566;52.928;10.522;2022-11-11T04:56:02;10.03;;;3.40;;
20810;SDS011;10566;52.928;10.522;2022-11-11T04:58:46;9.97;;;2.83;;
20810;SDS011;10566;52.928;10.522;2022-11-11T05:01:32;9.73;;;2.80;;
20810;SDS011;10566;52.928;10.522;2022-11-11T05:04:17;10.73;;;2.80;;
20810;SDS011;10566;52.928;10.522;2022-11-11T05:06:43;9.17;;;2.93;;
20810;SDS011;10566;52.928;10.522;2022-11-11T05:09:28;9.03;;;2.87;;
20810;SDS011;10566;52.928;10.522;2022-11-11T05:11:54;7.93;;;3.10;;
20810;SDS011;10566;52.928;10.522;2022-11-11T05:14:20;12.27;;;2.93;;
20810;SDS011;10566;52.928;10.522;2022-11-11T05:17:04;9.40;;;3.27;;
20810;SDS011;10566;52.928;10.522;2022-11-11T05:19:49;9.87;;;2.90;;
20810;SDS011;10566;52.928;10.522;2022-11-11T05:22:40;10.17;;;2.90;;
20810;SDS011;10566;52.928;10.522;2022-11-11T05:25:07;8.70;;;2.70;;
20810;SDS011;10566;52.928;10.522;2022-11-11T05:27:57;8.30;;;2.90;;
20810;SDS011;10566;52.928;10.522;2022-11-11T05:30:23;9.30;;;3.03;;
20810;SDS011;10566;52.928;10.522;2022-11-11T05:32:50;8.80;;;2.77;;
20810;SDS011;10566;52.928;10.522;2022-11-11T05:35:16;8.70;;;2.90;;
20810;SDS011;10566;52.928;10.522;2022-11-11T05:37:43;9.17;;;2.90;;
20810;SDS011;10566;52.928;10.522;2022-11-11T05:40:29;7.63;;;3.07;;
20810;SDS011;10566;52.928;10.522;2022-11-11T05:42:55;8.47;;;2.80;;
20810;SDS011;10566;52.928;10.522;2022-11-11T05:45:21;11.77;;;2.93;;
20810;SDS011;10566;52.928;10.522;2022-11-11T05:47:47;12.20;;;3.03;;
20810;SDS011;10566;52.928;10.522;2022-11-11T05:50:14;13.10;;;3.03;;
20810;SDS011;10566;52.928;10.522;2022-11-11T05:52:45;13.03;;;3.07;;
20810;SDS011;10566;52.928;10.522;2022-11-11T05:55:11;8.93;;;2.83;;
20810;SDS011;10566;52.928;10.522;2022-11-11T05:57:37;9.10;;;3.00;;
20810;SDS011;10566;52.928;10.522;2022-11-11T06:00:04;10.73;;;3.00;;
20810;SDS011;10566;52.928;10.522;2022-11-11T06:02:30;10.00;;;2.97;;
20810;SDS011;10566;52.928;10.522;2022-11-11T06:04:56;10.30;;;2.97;;
20810;SDS011;10566;52.928;10.522;2022-11-11T06:07:22;12.43;;;3.20;;
20810;SDS011;10566;52.928;10.522;2022-11-11T06:09:48;10.30;;;2.87;;
20810;SDS011;10566;52.928;10.522;2022-11-11T06:12:14;9.50;;;2.93;;
20810;SDS011;10566;52.928;10.522;2022-11-11T06:14:40;8.60;;;3.20;;
20810;SDS011;10566;52.928;10.522;2022-11-11T06:17:07;11.70;;;3.20;;
20810;SDS011;10566;52.928;10.522;2022-11-11T06:19:33;9.30;;;3.00;;
20810;SDS011;10566;52.928;10.522;2022-11-11T06:21:59;11.23;;;3.50;;
20810;SDS011;10566;52.928;10.522;2022-11-11T06:24:27;9.23;;;3.00;;
20810;SDS011;10566;52.928;10.522;2022-11-11T06:26:54;11.87;;;3.13;;
20810;SDS011;10566;52.928;10.522;2022-11-11T06:29:20;9.50;;;3.43;;
20810;SDS011;10566;52.928;10.522;2022-11-11T06:31:46;8.40;;;3.20;;
20810;SDS011;10566;52.928;10.522;2022-11-11T06:34:13;7.80;;;2.93;;
20810;SDS011;10566;52.928;10.522;2022-11-11T06:36:39;8.87;;;3.20;;
20810;SDS011;10566;52.928;10.522;2022-11-11T06:39:05;11.50;;;3.47;;
20810;SDS011;10566;52.928;10.522;2022-11-11T06:41:31;11.53;;;3.63;;
20810;SDS011;10566;52.928;10.522;2022-11-11T06:43:57;9.37;;;3.00;;
20810;SDS011;10566;52.928;10.522;2022-11-11T06:46:24;7.80;;;3.20;;
20810;SDS011;10566;52.928;10.522;2022-11-11T06:48:51;12.67;;;3.33;;
20810;SDS011;10566;52.928;10.522;2022-11-11T06:51:17;10.40;;;3.07;;
20810;SDS011;10566;52.928;10.522;2022-11-11T06:53:43;10.43;;;3.27;;
20810;SDS011;10566;52.928;10.522;2022-11-11T06:56:10;10.87;;;3.70;;
20810;SDS011;10566;52.928;10.522;2022-11-11T06:58:39;10.83;;;3.63;;
20810;SDS011;10566;52.928;10.522;2022-11-11T07:01:05;11.27;;;3.40;;
20810;SDS011;10566;52.928;10.522;2022-11-11T07:03:32;10.03;;;3.53;;
20810;SDS011;10566;52.928;10.522;2022-11-11T07:06:02;8.83;;;3.27;;
20810;SDS011;10566;52.928;10.522;2022-11-11T07:08:28;9.43;;;3.33;;
20810;SDS011;10566;52.928;10.522;2022-11-11T07:10:55;10.47;;;3.70;;
20810;SDS011;10566;52.928;10.522;2022-11-11T07:13:21;9.57;;;3.37;;
20810;SDS011;10566;52.928;10.522;2022-11-11T07:15:48;10.47;;;3.30;;
20810;SDS011;10566;52.928;10.522;2022-11-11T07:18:14;12.70;;;3.70;;
20810;SDS011;10566;52.928;10.522;2022-11-11T07:20:40;12.57;;;4.50;;
20810;SDS011;10566;52.928;10.522;2022-11-11T07:23:06;9.60;;;3.03;;
20810;SDS011;10566;52.928;10.522;2022-11-11T07:25:32;8.60;;;2.90;;
20810;SDS011;10566;52.928;10.522;2022-11-11T07:27:59;11.37;;;3.10;;
20810;SDS011;10566;52.928;10.522;2022-11-11T07:30:25;9.43;;;2.80;;
20810;SDS011;10566;52.928;10.522;2022-11-11T07:32:51;14.10;;;3.00;;
20810;SDS011;10566;52.928;10.522;2022-11-11T07:35:18;9.73;;;3.00;;
20810;SDS011;10566;52.928;10.522;2022-11-11T07:37:44;10.73;;;3.30;;
20810;SDS011;10566;52.928;10.522;2022-11-11T07:40:12;10.13;;;3.13;;
20810;SDS011;10566;52.928;10.522;2022-11-11T07:42:39;10.17;;;3.00;;
20810;SDS011;10566;52.928;10.522;2022-11-11T07:45:06;13.30;;;3.67;;
20810;SDS011;10566;52.928;10.522;2022-11-11T07:47:33;11.33;;;4.07;;
20810;SDS011;10566;52.928;10.522;2022-11-11T07:49:59;10.90;;;2.93;;
20810;SDS011;10566;52.928;10.522;2022-11-11T07:52:25;7.20;;;2.93;;
20810;SDS011;10566;52.928;10.522;2022-11-11T07:54:51;10.43;;;3.00;;
20810;SDS011;10566;52.928;10.522;2022-11-11T07:57:17;8.90;;;2.90;;
20810;SDS011;10566;52.928;10.522;2022-11-11T07:59:44;10.40;;;3.10;;
20810;SDS011;10566;52.928;10.522;2022-11-11T08:02:11;9.07;;;2.80;;
20810;SDS011;10566;52.928;10.522;2022-11-11T08:04:37;14.90;;;4.10;;
20810;SDS011;10566;52.928;10.522;2022-11-11T08:07:04;16.60;;;7.10;;
20810;SDS011;10566;52.928;10.522;2022-11-11T08:09:30;7.60;;;3.00;;
20810;SDS011;10566;52.928;10.522;2022-11-11T08:11:56;9.33;;;2.70;;
20810;SDS011;10566;52.928;10.522;2022-11-11T08:14:41;10.67;;;2.80;;
20810;SDS011;10566;52.928;10.522;2022-11-11T08:17:07;12.67;;;2.90;;
20810;SDS011;10566;52.928;10.522;2022-11-11T08:19:34;11.83;;;3.40;;
20810;SDS011;10566;52.928;10.522;2022-11-11T08:22:00;10.23;;;2.90;;
20810;SDS011;10566;52.928;10.522;2022-11-11T08:24:26;9.70;;;2.83;;
20810;SDS011;10566;52.928;10.522;2022-11-11T08:26:52;7.27;;;2.57;;
20810;SDS011;10566;52.928;10.522;2022-11-11T08:29:18;8.47;;;2.93;;
20810;SDS011;10566;52.928;10.522;2022-11-11T08:31:44;9.73;;;2.80;;
20810;SDS011;10566;52.928;10.522;2022-11-11T08:34:11;9.73;;;3.20;;
20810;SDS011;10566;52.928;10.522;2022-11-11T08:36:38;15.57;;;6.87;;
20810;SDS011;10566;52.928;10.522;2022-11-11T08:39:04;10.07;;;3.57;;
20810;SDS011;10566;52.928;10.522;2022-11-11T08:41:30;9.37;;;2.90;;
20810;SDS011;10566;52.928;10.522;2022-11-11T08:43:56;12.27;;;3.27;;
20810;SDS011;10566;52.928;10.522;2022-11-11T08:46:25;10.20;;;2.83;;
20810;SDS011;10566;52.928;10.522;2022-11-11T08:48:51;8.53;;;2.97;;
20810;SDS011;10566;52.928;10.522;2022-11-11T08:51:17;8.27;;;2.80;;
20810;SDS011;10566;52.928;10.522;2022-11-11T08:53:44;10.77;;;2.90;;
20810;SDS011;10566;52.928;10.522;2022-11-11T08:56:10;9.30;;;2.80;;
20810;SDS011;10566;52.928;10.522;2022-11-11T08:58:36;8.20;;;2.67;;
20810;SDS011;10566;52.928;10.522;2022-11-11T09:01:03;10.23;;;3.00;;
20810;SDS011;10566;52.928;10.522;2022-11-11T09:03:29;12.27;;;2.60;;
20810;SDS011;10566;52.928;10.522;2022-11-11T09:05:55;7.10;;;2.20;;
20810;SDS011;10566;52.928;10.522;2022-11-11T09:08:22;7.13;;;2.80;;
20810;SDS011;10566;52.928;10.522;2022-11-11T09:10:48;11.30;;;3.13;;
20810;SDS011;10566;52.928;10.522;2022-11-11T09:13:14;8.07;;;2.73;;
20810;SDS011;10566;52.928;10.522;2022-11-11T09:15:40;6.87;;;2.37;;
20810;SDS011;10566;52.928;10.522;2022-11-11T09:18:06;18.23;;;5.40;;
20810;SDS011;10566;52.928;10.522;2022-11-11T09:20:34;11.40;;;3.33;;
20810;SDS011;10566;52.928;10.522;2022-11-11T09:23:01;16.37;;;3.00;;
20810;SDS011;10566;52.928;10.522;2022-11-11T09:25:27;10.30;;;2.67;;
20810;SDS011;10566;52.928;10.522;2022-11-11T09:27:57;11.53;;;2.53;;
20810;SDS011;10566;52.928;10.522;2022-11-11T09:30:24;10.80;;;2.73;;
20810;SDS011;10566;52.928;10.522;2022-11-11T09:32:50;9.53;;;2.67;;
20810;SDS011;10566;52.928;10.522;2022-11-11T09:35:16;7.83;;;2.47;;
20810;SDS011;10566;52.928;10.522;2022-11-11T09:37:51;8.83;;;2.40;;
20810;SDS011;10566;52.928;10.522;2022-11-11T09:40:18;6.90;;;2.50;;
20810;SDS011;10566;52.928;10.522;2022-11-11T09:47:55;10.77;;;2.77;;
20810;SDS011;10566;52.928;10.522;2022-11-11T09:50:27;9.00;;;2.90;;
20810;SDS011;10566;52.928;10.522;2022-11-11T09:53:09;11.80;;;3.17;;
20810;SDS011;10566;52.928;10.522;2022-11-11T09:55:43;7.17;;;2.30;;
20810;SDS011;10566;52.928;10.522;2022-11-11T10:00:41;8.70;;;2.60;;
20810;SDS011;10566;52.928;10.522;2022-11-11T10:03:13;6.83;;;2.43;;
20810;SDS011;10566;52.928;10.522;2022-11-11T10:11:42;9.87;;;2.60;;
20810;SDS011;10566;52.928;10.522;2022-11-11T10:14:11;9.23;;;2.63;;
20810;SDS011;10566;52.928;10.522;2022-11-11T10:22:02;9.27;;;2.47;;
20810;SDS011;10566;52.928;10.522;2022-11-11T10:24:32;6.53;;;2.37;;
20810;SDS011;10566;52.928;10.522;2022-11-11T10:27:01;7.83;;;2.47;;
20810;SDS011;10566;52.928;10.522;2022-11-11T10:29:39;9.37;;;2.53;;
20810;SDS011;10566;52.928;10.522;2022-11-11T10:32:14;7.83;;;2.27;;
20810;SDS011;10566;52.928;10.522;2022-11-11T10:34:42;8.67;;;3.10;;
20810;SDS011;10566;52.928;10.522;2022-11-11T10:37:14;10.07;;;3.13;;
20810;SDS011;10566;52.928;10.522;2022-11-11T10:39:47;10.07;;;2.43;;
20810;SDS011;10566;52.928;10.522;2022-11-11T10:42:16;40.43;;;6.33;;
20810;SDS011;10566;52.928;10.522;2022-11-11T10:44:42;33.10;;;4.73;;
20810;SDS011;10566;52.928;10.522;2022-11-11T10:47:31;5.43;;;2.00;;
20810;SDS011;10566;52.928;10.522;2022-11-11T10:52:35;11.20;;;2.53;;
20810;SDS011;10566;52.928;10.522;2022-11-11T10:55:04;7.93;;;2.13;;
20810;SDS011;10566;52.928;10.522;2022-11-11T11:00:03;9.47;;;2.33;;
20810;SDS011;10566;52.928;10.522;2022-11-11T11:02:33;8.93;;;2.30;;
20810;SDS011;10566;52.928;10.522;2022-11-11T11:05:06;6.67;;;1.90;;
20810;SDS011;10566;52.928;10.522;2022-11-11T11:07:39;11.40;;;2.40;;
20810;SDS011;10566;52.928;10.522;2022-11-11T11:10:20;8.50;;;2.23;;
20810;SDS011;10566;52.928;10.522;2022-11-11T11:12:50;6.80;;;2.00;;
20810;SDS011;10566;52.928;10.522;2022-11-11T11:15:18;7.50;;;2.60;;
20810;SDS011;10566;52.928;10.522;2022-11-11T11:17:59;7.00;;;1.93;;
20810;SDS011;10566;52.928;10.522;2022-11-11T11:20:26;5.87;;;2.00;;
20810;SDS011;10566;52.928;10.522;2022-11-11T11:22:54;6.90;;;2.30;;
20810;SDS011;10566;52.928;10.522;2022-11-11T11:25:23;8.13;;;2.10;;
20810;SDS011;10566;52.928;10.522;2022-11-11T11:27:50;8.57;;;1.93;;
20810;SDS011;10566;52.928;10.522;2022-11-11T11:30:17;8.67;;;1.90;;
20810;SDS011;10566;52.928;10.522;2022-11-11T11:32:57;6.63;;;2.07;;
20810;SDS011;10566;52.928;10.522;2022-11-11T11:35:39;9.97;;;2.03;;
20810;SDS011;10566;52.928;10.522;2022-11-11T11:38:06;6.70;;;1.67;;
20810;SDS011;10566;52.928;10.522;2022-11-11T11:40:46;7.60;;;1.73;;
20810;SDS011;10566;52.928;10.522;2022-11-11T11:45:58;8.23;;;1.87;;
20810;SDS011;10566;52.928;10.522;2022-11-11T11:48:38;7.80;;;1.63;;
20810;SDS011;10566;52.928;10.522;2022-11-11T12:01:04;9.27;;;1.90;;
20810;SDS011;10566;52.928;10.522;2022-11-11T12:03:40;9.13;;;1.63;;
20810;SDS011;10566;52.928;10.522;2022-11-11T12:18:50;6.57;;;1.50;;
20810;SDS011;10566;52.928;10.522;2022-11-11T12:21:21;7.23;;;1.60;;
20810;SDS011;10566;52.928;10.522;2022-11-11T12:29:16;7.93;;;1.90;;
20810;SDS011;10566;52.928;10.522;2022-11-11T12:31:55;6.20;;;1.40;;
20810;SDS011;10566;52.928;10.522;2022-11-11T12:39:39;7.07;;;1.50;;
20810;SDS011;10566;52.928;10.522;2022-11-11T12:42:31;5.10;;;1.40;;
20810;SDS011;10566;52.928;10.522;2022-11-11T12:45:10;5.27;;;1.30;;
20810;SDS011;10566;52.928;10.522;2022-11-11T12:47:55;4.73;;;1.53;;
20810;SDS011;10566;52.928;10.522;2022-11-11T12:55:43;8.57;;;1.43;;
20810;SDS011;10566;52.928;10.522;2022-11-11T13:15:02;8.30;;;1.40;;
20810;SDS011;10566;52.928;10.522;2022-11-11T13:16:57;7.00;;;1.58;;
20810;SDS011;10566;52.928;10.522;2022-11-11T13:19:30;5.10;;;1.42;;
20810;SDS011;10566;52.928;10.522;2022-11-11T13:22:00;9.75;;;1.40;;
20810;SDS011;10566;52.928;10.522;2022-11-11T13:24:27;6.97;;;1.40;;
20810;SDS011;10566;52.928;10.522;2022-11-11T13:26:58;5.37;;;1.10;;
20810;SDS011;10566;52.928;10.522;2022-11-11T13:32:11;5.60;;;1.60;;
20810;SDS011;10566;52.928;10.522;2022-11-11T13:34:39;7.10;;;1.50;;
20810;SDS011;10566;52.928;10.522;2022-11-11T13:37:05;7.97;;;1.30;;
20810;SDS011;10566;52.928;10.522;2022-11-11T13:39:36;5.57;;;1.40;;
20810;SDS011;10566;52.928;10.522;2022-11-11T13:42:03;6.97;;;1.43;;
20810;SDS011;10566;52.928;10.522;2022-11-11T13:47:03;5.53;;;1.40;;
20810;SDS011;10566;52.928;10.522;2022-11-11T13:49:32;7.97;;;1.30;;
20810;SDS011;10566;52.928;10.522;2022-11-11T13:52:03;6.93;;;1.33;;
20810;SDS011;10566;52.928;10.522;2022-11-11T13:57:08;9.60;;;1.53;;
20810;SDS011;10566;52.928;10.522;2022-11-11T13:59:41;6.93;;;1.20;;
20810;SDS011;10566;52.928;10.522;2022-11-11T14:02:11;6.23;;;1.30;;
20810;SDS011;10566;52.928;10.522;2022-11-11T14:07:46;9.77;;;1.20;;
20810;SDS011;10566;52.928;10.522;2022-11-11T14:17:53;4.37;;;1.20;;
20810;SDS011;10566;52.928;10.522;2022-11-11T14:20:32;8.57;;;1.40;;
20810;SDS011;10566;52.928;10.522;2022-11-11T14:25:43;7.20;;;1.10;;
20810;SDS011;10566;52.928;10.522;2022-11-11T14:28:19;9.37;;;1.73;;
20810;SDS011;10566;52.928;10.522;2022-11-11T14:30:46;5.83;;;1.20;;
20810;SDS011;10566;52.928;10.522;2022-11-11T14:36:01;4.43;;;1.10;;
20810;SDS011;10566;52.928;10.522;2022-11-11T14:38:43;9.37;;;1.57;;
20810;SDS011;10566;52.928;10.522;2022-11-11T14:44:18;7.17;;;1.30;;
20810;SDS011;10566;52.928;10.522;2022-11-11T14:54:52;5.17;;;1.20;;
20810;SDS011;10566;52.928;10.522;2022-11-11T14:57:23;7.10;;;1.10;;
20810;SDS011;10566;52.928;10.522;2022-11-11T14:59:49;6.47;;;1.30;;
20810;SDS011;10566;52.928;10.522;2022-11-11T15:02:29;6.43;;;1.30;;
20810;SDS011;10566;52.928;10.522;2022-11-11T15:04:58;5.97;;;1.30;;
20810;SDS011;10566;52.928;10.522;2022-11-11T15:07:30;4.10;;;1.07;;
20810;SDS011;10566;52.928;10.522;2022-11-11T15:12:26;5.27;;;1.10;;
20810;SDS011;10566;52.928;10.522;2022-11-11T15:32:38;5.20;;;1.30;;
20810;SDS011;10566;52.928;10.522;2022-11-11T15:35:20;6.07;;;1.40;;
20810;SDS011;10566;52.928;10.522;2022-11-11T15:37:52;6.03;;;1.50;;
20810;SDS011;10566;52.928;10.522;2022-11-11T15:40:20;6.50;;;1.67;;
20810;SDS011;10566;52.928;10.522;2022-11-11T15:42:46;8.03;;;1.60;;
20810;SDS011;10566;52.928;10.522;2022-11-11T15:47:44;5.93;;;1.70;;
20810;SDS011;10566;52.928;10.522;2022-11-11T15:50:26;7.40;;;2.00;;
20810;SDS011;10566;52.928;10.522;2022-11-11T15:52:54;10.77;;;2.73;;
20810;SDS011;10566;52.928;10.522;2022-11-11T15:57:49;10.03;;;2.30;;
20810;SDS011;10566;52.928;10.522;2022-11-11T16:00:34;12.47;;;2.70;;
20810;SDS011;10566;52.928;10.522;2022-11-11T16:03:00;9.87;;;2.30;;
20810;SDS011;10566;52.928;10.522;2022-11-11T16:05:27;9.33;;;2.40;;
20810;SDS011;10566;52.928;10.522;2022-11-11T16:07:55;14.40;;;2.87;;
20810;SDS011;10566;52.928;10.522;2022-11-11T16:12:55;9.30;;;2.60;;
20810;SDS011;10566;52.928;10.522;2022-11-11T16:16:05;7.17;;;2.13;;
20810;SDS011;10566;52.928;10.522;2022-11-11T16:18:13;7.07;;;2.30;;
20810;SDS011;10566;52.928;10.522;2022-11-11T16:23:14;7.57;;;2.60;;
20810;SDS011;10566;52.928;10.522;2022-11-11T16:25:41;12.43;;;2.43;;
20810;SDS011;10566;52.928;10.522;2022-11-11T16:28:09;7.50;;;2.17;;
20810;SDS011;10566;52.928;10.522;2022-11-11T16:30:36;6.53;;;2.77;;
20810;SDS011;10566;52.928;10.522;2022-11-11T16:33:02;10.83;;;4.03;;
20810;SDS011;10566;52.928;10.522;2022-11-11T16:35:33;8.40;;;3.80;;
20810;SDS011;10566;52.928;10.522;2022-11-11T16:38:00;7.70;;;3.07;;
20810;SDS011;10566;52.928;10.522;2022-11-11T16:45:51;8.13;;;3.93;;
20810;SDS011;10566;52.928;10.522;2022-11-11T16:51:40;9.13;;;3.80;;
20810;SDS011;10566;52.928;10.522;2022-11-11T16:54:06;10.63;;;4.23;;
20810;SDS011;10566;52.928;10.522;2022-11-11T16:56:33;12.87;;;5.20;;
20810;SDS011;10566;52.928;10.522;2022-11-11T16:59:11;10.17;;;5.50;;
20810;SDS011;10566;52.928;10.522;2022-11-11T17:01:42;11.57;;;6.30;;
20810;SDS011;10566;52.928;10.522;2022-11-11T17:04:08;12.20;;;6.17;;
20810;SDS011;10566;52.928;10.522;2022-11-11T17:11:58;24.47;;;11.43;;
20810;SDS011;10566;52.928;10.522;2022-11-11T17:14:27;16.60;;;9.83;;
20810;SDS011;10566;52.928;10.522;2022-11-11T17:16:54;20.00;;;11.20;;
20810;SDS011;10566;52.928;10.522;2022-11-11T17:19:20;17.03;;;10.67;;
20810;SDS011;10566;52.928;10.522;2022-11-11T17:21:47;20.67;;;10.90;;
20810;SDS011;10566;52.928;10.522;2022-11-11T17:24:13;18.07;;;10.30;;
20810;SDS011;10566;52.928;10.522;2022-11-11T17:26:39;17.73;;;9.93;;
20810;SDS011;10566;52.928;10.522;2022-11-11T17:29:06;19.37;;;9.83;;
20810;SDS011;10566;52.928;10.522;2022-11-11T17:31:33;16.63;;;9.43;;
20810;SDS011;10566;52.928;10.522;2022-11-11T17:34:04;15.43;;;8.47;;
20810;SDS011;10566;52.928;10.522;2022-11-11T17:36:30;15.17;;;8.67;;
20810;SDS011;10566;52.928;10.522;2022-11-11T17:38:56;18.20;;;7.43;;